createdAt,value
2018-05-27T00:00:07.416Z,19.94
2018-05-27T00:02:36.986Z,19.92
2018-05-27T00:05:06.620Z,19.88
2018-05-27T00:07:36.165Z,19.84
2018-05-27T00:10:05.401Z,19.81
2018-05-27T00:12:35.049Z,19.78
2018-05-27T00:15:04.304Z,19.74
2018-05-27T00:17:33.876Z,19.69
2018-05-27T00:20:03.191Z,19.70
2018-05-27T00:22:32.759Z,19.75
2018-05-27T00:25:02.327Z,19.72
2018-05-27T00:27:31.960Z,19.67
2018-05-27T00:30:01.551Z,19.54
2018-05-27T00:32:30.895Z,19.51
2018-05-27T00:35:00.494Z,19.51
2018-05-27T00:37:29.819Z,19.48
2018-05-27T00:39:59.468Z,19.46
2018-05-27T00:42:29.023Z,19.45
2018-05-27T00:44:58.608Z,19.39
2018-05-27T00:47:28.207Z,19.38
2018-05-27T00:49:57.829Z,19.38
2018-05-27T00:52:27.579Z,19.33
2018-05-27T00:54:57.298Z,19.31
2018-05-27T00:57:26.879Z,19.32
2018-05-27T00:59:56.438Z,19.26
2018-05-27T01:02:25.997Z,19.24
2018-05-27T01:04:55.576Z,19.24
2018-05-27T01:07:25.187Z,19.23
2018-05-27T01:09:54.764Z,19.21
2018-05-27T01:12:24.967Z,19.22
2018-05-27T01:14:54.526Z,19.22
2018-05-27T01:17:23.838Z,19.23
2018-05-27T01:19:53.180Z,19.24
2018-05-27T01:22:22.738Z,19.22
2018-05-27T01:24:52.302Z,19.20
2018-05-27T01:27:21.811Z,19.18
2018-05-27T01:29:51.371Z,19.18
2018-05-27T01:32:20.938Z,19.19
2018-05-27T01:34:50.586Z,19.20
2018-05-27T01:37:20.175Z,19.16
2018-05-27T01:39:49.740Z,19.13
2018-05-27T01:42:19.300Z,19.13
2018-05-27T01:44:48.893Z,19.13
2018-05-27T01:47:18.455Z,19.12
2018-05-27T01:49:48.048Z,19.11
2018-05-27T01:52:17.592Z,19.07
2018-05-27T01:54:47.150Z,19.05
2018-05-27T01:57:16.730Z,19.04
2018-05-27T01:59:46.291Z,19.08
2018-05-27T02:02:15.876Z,19.07
2018-05-27T02:04:45.452Z,19.04
2018-05-27T02:07:15.012Z,18.98
2018-05-27T02:09:44.599Z,18.95
2018-05-27T02:12:14.183Z,18.96
2018-05-27T02:14:43.793Z,18.97
2018-05-27T02:17:13.359Z,18.96
2018-05-27T02:19:42.983Z,18.94
2018-05-27T02:22:12.662Z,18.93
2018-05-27T02:24:42.252Z,18.91
2018-05-27T02:27:11.821Z,18.87
2018-05-27T02:29:41.383Z,18.85
2018-05-27T02:32:10.968Z,18.81
2018-05-27T02:34:40.534Z,18.78
2018-05-27T02:37:10.126Z,18.76
2018-05-27T02:39:39.678Z,18.74
2018-05-27T02:42:09.252Z,18.73
2018-05-27T02:44:38.837Z,18.70
2018-05-27T02:47:08.399Z,18.70
2018-05-27T02:49:37.955Z,18.69
2018-05-27T02:52:07.559Z,18.69
2018-05-27T02:54:37.117Z,18.70
2018-05-27T02:57:06.432Z,18.71
2018-05-27T02:59:36.015Z,18.69
2018-05-27T03:02:05.582Z,18.67
2018-05-27T03:04:35.360Z,18.64
2018-05-27T03:07:05.004Z,18.61
2018-05-27T03:09:34.041Z,18.59
2018-05-27T03:12:03.597Z,18.56
2018-05-27T03:14:32.943Z,18.56
2018-05-27T03:17:02.499Z,18.57
2018-05-27T03:19:32.056Z,18.59
2018-05-27T03:22:01.689Z,18.62
2018-05-27T03:24:31.250Z,18.64
2018-05-27T03:27:00.850Z,18.64
2018-05-27T03:29:30.423Z,18.64
2018-05-27T03:31:59.748Z,18.62
2018-05-27T03:34:29.442Z,18.62
2018-05-27T03:36:59.041Z,18.66
2018-05-27T03:39:28.858Z,18.69
2018-05-27T03:41:58.458Z,18.71
2018-05-27T03:44:28.065Z,18.75
2018-05-27T03:46:57.635Z,18.82
2018-05-27T03:49:26.987Z,18.87
2018-05-27T03:51:56.559Z,18.88
2018-05-27T03:54:26.141Z,18.90
2018-05-27T03:56:55.715Z,18.89
2018-05-27T03:59:27.180Z,18.78
2018-05-27T04:01:56.752Z,18.93
2018-05-27T04:07:45.244Z,18.96
2018-05-27T04:10:14.557Z,18.98
2018-05-27T04:12:44.116Z,19.03
2018-05-27T04:15:13.828Z,19.05
2018-05-27T04:17:43.419Z,19.06
2018-05-27T04:20:13.095Z,19.10
2018-05-27T04:22:42.856Z,19.13
2018-05-27T04:25:12.165Z,19.12
2018-05-27T04:27:41.735Z,19.12
2018-05-27T04:30:11.296Z,19.16
2018-05-27T04:32:41.002Z,19.18
2018-05-27T04:35:10.563Z,19.20
2018-05-27T04:37:40.142Z,19.24
2018-05-27T04:40:09.773Z,19.31
2018-05-27T04:42:39.371Z,19.38
2018-05-27T04:45:10.908Z,19.45
2018-05-27T04:47:40.595Z,19.46
2018-05-27T04:50:10.386Z,19.49
2018-05-27T04:52:39.955Z,19.54
2018-05-27T04:55:09.524Z,19.59
2018-05-27T04:57:39.127Z,19.61
2018-05-27T05:00:08.699Z,19.66
2018-05-27T05:02:38.271Z,19.71
2018-05-27T05:05:07.980Z,19.76
2018-05-27T05:07:37.595Z,19.83
2018-05-27T05:10:07.208Z,19.86
2018-05-27T05:12:36.872Z,19.85
2018-05-27T05:15:06.494Z,19.89
2018-05-27T05:17:36.084Z,19.93
2018-05-27T05:20:05.671Z,19.97
2018-05-27T05:22:35.262Z,20.01
2018-05-27T05:25:04.831Z,20.08
2018-05-27T05:27:34.418Z,20.17
2018-05-27T05:30:04.007Z,20.23
2018-05-27T05:32:33.574Z,20.29
2018-05-27T05:35:03.193Z,20.40
2018-05-27T05:37:32.525Z,20.49
2018-05-27T05:40:02.098Z,20.56
2018-05-27T05:42:31.679Z,20.59
2018-05-27T05:45:01.242Z,20.68
2018-05-27T05:47:32.916Z,20.73
2018-05-27T05:50:04.220Z,20.77
2018-05-27T05:52:33.888Z,20.82
2018-05-27T05:55:03.488Z,20.87
2018-05-27T05:57:33.051Z,20.96
2018-05-27T06:00:02.630Z,21.02
2018-05-27T06:02:32.191Z,21.08
2018-05-27T06:05:01.758Z,21.13
2018-05-27T06:07:31.337Z,21.18
2018-05-27T06:10:00.926Z,21.21
2018-05-27T06:12:30.493Z,21.29
2018-05-27T06:15:00.070Z,21.39
2018-05-27T06:17:29.637Z,21.49
2018-05-27T06:19:59.323Z,21.54
2018-05-27T06:22:28.925Z,21.63
2018-05-27T06:24:58.495Z,21.67
2018-05-27T06:27:28.063Z,21.76
2018-05-27T06:29:57.644Z,21.84
2018-05-27T06:32:27.311Z,21.89
2018-05-27T06:34:57.004Z,21.95
2018-05-27T06:37:26.578Z,22.01
2018-05-27T06:39:56.163Z,22.08
2018-05-27T06:42:25.486Z,22.15
2018-05-27T06:44:55.059Z,22.18
2018-05-27T06:47:24.625Z,22.26
2018-05-27T06:49:54.399Z,22.33
2018-05-27T06:52:23.704Z,22.37
2018-05-27T06:54:53.276Z,22.40
2018-05-27T06:57:22.850Z,22.49
2018-05-27T06:59:52.438Z,22.56
2018-05-27T07:02:21.994Z,22.65
2018-05-27T07:04:51.570Z,22.70
2018-05-27T07:07:21.339Z,22.72
2018-05-27T07:09:50.937Z,22.76
2018-05-27T07:12:20.420Z,22.83
2018-05-27T07:14:50.003Z,22.88
2018-05-27T07:17:19.543Z,22.93
2018-05-27T07:19:49.110Z,23.02
2018-05-27T07:22:18.706Z,23.08
2018-05-27T07:24:48.277Z,23.05
2018-05-27T07:27:17.837Z,23.10
2018-05-27T07:29:47.416Z,23.08
2018-05-27T07:32:16.706Z,23.18
2018-05-27T07:34:46.382Z,23.25
2018-05-27T07:37:15.964Z,23.16
2018-05-27T07:39:45.519Z,23.27
2018-05-27T07:42:14.807Z,23.32
2018-05-27T07:44:44.390Z,23.38
2018-05-27T07:47:13.820Z,23.39
2018-05-27T07:49:43.381Z,23.45
2018-05-27T07:52:12.964Z,23.25
2018-05-27T07:54:42.735Z,23.32
2018-05-27T07:57:12.317Z,23.42
2018-05-27T07:59:41.892Z,23.51
2018-05-27T08:02:11.462Z,23.54
2018-05-27T08:04:40.763Z,23.42
2018-05-27T08:07:10.440Z,23.46
2018-05-27T08:09:40.163Z,23.42
2018-05-27T08:12:09.719Z,23.57
2018-05-27T08:14:39.280Z,23.65
2018-05-27T08:17:08.895Z,23.82
2018-05-27T08:19:38.444Z,23.91
2018-05-27T08:22:08.023Z,23.95
2018-05-27T08:24:37.320Z,24.02
2018-05-27T08:27:06.891Z,24.09
2018-05-27T08:29:36.264Z,23.93
2018-05-27T08:32:05.646Z,24.12
2018-05-27T08:34:35.232Z,24.23
2018-05-27T08:37:04.879Z,24.27
2018-05-27T08:39:34.422Z,24.30
2018-05-27T08:42:03.996Z,24.33
2018-05-27T08:44:33.674Z,24.38
2018-05-27T08:47:03.262Z,24.45
2018-05-27T08:49:32.556Z,24.55
2018-05-27T08:52:01.883Z,24.62
2018-05-27T08:54:31.447Z,24.66
2018-05-27T08:57:00.755Z,24.73
2018-05-27T08:59:30.343Z,24.84
2018-05-27T09:01:59.844Z,24.88
2018-05-27T09:04:29.398Z,24.93
2018-05-27T09:06:58.994Z,25.02
2018-05-27T09:09:28.547Z,25.12
2018-05-27T09:11:57.899Z,25.20
2018-05-27T09:14:27.194Z,25.27
2018-05-27T09:16:56.475Z,25.33
2018-05-27T09:19:25.767Z,25.42
2018-05-27T09:21:55.052Z,25.50
2018-05-27T09:24:24.383Z,25.62
2018-05-27T09:26:53.659Z,25.68
2018-05-27T09:29:22.960Z,25.80
2018-05-27T09:31:52.242Z,25.82
2018-05-27T09:34:21.522Z,25.93
2018-05-27T09:36:50.924Z,25.95
2018-05-27T09:39:20.262Z,26.05
2018-05-27T09:41:49.700Z,26.10
2018-05-27T09:44:19.265Z,26.15
2018-05-27T09:46:48.811Z,26.25
2018-05-27T09:49:18.206Z,26.31
2018-05-27T09:51:47.644Z,26.42
2018-05-27T09:54:16.919Z,26.55
2018-05-27T09:56:46.226Z,26.61
2018-05-27T09:59:15.515Z,26.67
2018-05-27T10:01:45.080Z,26.75
2018-05-27T10:04:14.404Z,26.83
2018-05-27T10:06:43.957Z,26.86
2018-05-27T10:09:13.232Z,26.85
2018-05-27T10:11:42.522Z,26.95
2018-05-27T10:14:11.828Z,27.02
2018-05-27T10:16:41.388Z,27.08
2018-05-27T10:19:10.668Z,27.16
2018-05-27T10:21:40.029Z,27.20
2018-05-27T10:24:09.605Z,27.25
2018-05-27T10:26:38.917Z,27.29
2018-05-27T10:29:08.234Z,27.34
2018-05-27T10:31:37.703Z,27.47
2018-05-27T10:34:06.973Z,27.54
2018-05-27T10:36:36.535Z,27.63
2018-05-27T10:39:06.067Z,27.71
2018-05-27T10:41:35.345Z,27.74
2018-05-27T10:44:04.910Z,27.78
2018-05-27T10:46:34.183Z,27.86
2018-05-27T10:49:03.468Z,27.92
2018-05-27T10:51:32.747Z,27.95
2018-05-27T10:54:02.298Z,27.90
2018-05-27T10:56:31.583Z,27.99
2018-05-27T10:59:00.877Z,28.09
2018-05-27T11:01:30.145Z,28.17
2018-05-27T11:03:59.724Z,28.25
2018-05-27T11:06:29.010Z,28.25
2018-05-27T11:08:58.283Z,28.21
2018-05-27T11:11:27.580Z,28.26
2018-05-27T11:13:57.155Z,28.35
2018-05-27T11:16:26.442Z,28.45
2018-05-27T11:18:55.785Z,28.55
2018-05-27T11:21:25.252Z,28.53
2018-05-27T11:23:54.532Z,28.67
2018-05-27T11:26:23.839Z,28.66
2018-05-27T11:28:53.123Z,28.52
2018-05-27T11:31:22.411Z,28.59
2018-05-27T11:33:51.697Z,28.45
2018-05-27T11:36:20.991Z,28.69
2018-05-27T11:38:50.307Z,28.94
2018-05-27T11:41:19.587Z,29.16
2018-05-27T11:43:48.937Z,29.28
2018-05-27T11:46:18.219Z,29.45
2018-05-27T11:48:47.786Z,29.67
2018-05-27T11:51:17.082Z,29.92
2018-05-27T11:53:46.623Z,30.07
2018-05-27T11:56:15.902Z,30.23
2018-05-27T11:58:45.219Z,30.32
2018-05-27T12:01:14.765Z,30.56
2018-05-27T12:03:44.040Z,30.60
2018-05-27T12:06:13.336Z,30.46
2018-05-27T12:08:42.908Z,30.40
2018-05-27T12:11:12.196Z,30.46
2018-05-27T12:13:41.637Z,30.49
2018-05-27T12:16:12.900Z,30.49
2018-05-27T12:18:42.174Z,30.03
2018-05-27T12:21:11.736Z,29.71
2018-05-27T12:23:41.224Z,29.48
2018-05-27T12:26:10.534Z,29.34
2018-05-27T12:28:39.819Z,29.18
2018-05-27T12:31:09.104Z,29.21
2018-05-27T12:33:38.387Z,28.88
2018-05-27T12:36:07.949Z,28.41
2018-05-27T12:38:37.225Z,28.57
2018-05-27T12:41:06.619Z,28.42
2018-05-27T12:43:35.900Z,28.58
2018-05-27T12:46:05.468Z,28.47
2018-05-27T12:48:34.743Z,28.58
2018-05-27T12:51:04.072Z,28.59
2018-05-27T12:53:33.528Z,28.57
2018-05-27T12:56:03.093Z,28.56
2018-05-27T12:58:32.552Z,28.29
2018-05-27T13:01:02.355Z,28.38
2018-05-27T13:03:31.906Z,28.46
2018-05-27T13:06:01.510Z,28.12
2018-05-27T13:08:31.419Z,28.26
2018-05-27T13:11:00.983Z,28.36
2018-05-27T13:13:30.532Z,28.18
2018-05-27T13:15:59.847Z,28.26
2018-05-27T13:18:29.327Z,28.36
2018-05-27T13:20:58.897Z,28.35
2018-05-27T13:23:28.189Z,28.14
2018-05-27T13:25:57.766Z,27.69
2018-05-27T13:28:27.052Z,27.62
2018-05-27T13:30:56.337Z,27.28
2018-05-27T13:33:25.900Z,27.74
2018-05-27T13:35:55.175Z,27.93
2018-05-27T13:38:24.466Z,28.02
2018-05-27T13:40:53.747Z,28.16
2018-05-27T13:43:23.361Z,27.22
2018-05-27T13:45:52.917Z,27.70
2018-05-27T13:48:22.197Z,27.72
2018-05-27T13:50:51.472Z,27.44
2018-05-27T13:53:21.038Z,27.65
2018-05-27T13:55:50.390Z,27.72
2018-05-27T13:58:19.660Z,27.45
2018-05-27T14:00:48.968Z,27.41
2018-05-27T14:03:18.523Z,26.88
2018-05-27T14:05:48.075Z,27.21
2018-05-27T14:08:17.651Z,27.40
2018-05-27T14:10:47.217Z,27.42
2018-05-27T14:13:16.533Z,27.44
2018-05-27T14:15:45.810Z,27.16
2018-05-27T14:18:15.109Z,27.24
2018-05-27T14:20:44.389Z,27.32
2018-05-27T14:23:13.688Z,27.34
2018-05-27T14:25:43.125Z,27.28
2018-05-27T14:28:12.408Z,27.29
2018-05-27T14:30:41.722Z,27.03
2018-05-27T14:33:11.024Z,26.82
2018-05-27T14:35:40.353Z,26.79
2018-05-27T14:38:09.748Z,26.88
2018-05-27T14:40:39.036Z,26.91
2018-05-27T14:43:08.309Z,27.00
2018-05-27T14:45:37.703Z,27.03
2018-05-27T14:48:07.147Z,26.91
2018-05-27T14:50:36.483Z,26.90
2018-05-27T14:53:05.799Z,26.96
2018-05-27T14:55:35.078Z,26.87
2018-05-27T14:58:04.392Z,26.91
2018-05-27T15:00:33.894Z,26.60
2018-05-27T15:03:03.327Z,26.70
2018-05-27T15:05:32.611Z,26.81
2018-05-27T15:08:01.909Z,26.64
2018-05-27T15:10:31.459Z,26.75
2018-05-27T15:13:00.806Z,26.86
2018-05-27T15:15:30.383Z,26.91
2018-05-27T15:18:00.206Z,26.94
2018-05-27T15:20:29.838Z,26.99
2018-05-27T15:22:59.395Z,27.01
2018-05-27T15:25:28.805Z,26.99
2018-05-27T15:27:58.169Z,27.06
2018-05-27T15:30:27.475Z,27.05
2018-05-27T15:32:57.161Z,27.01
2018-05-27T15:35:26.791Z,27.02
2018-05-27T15:37:56.071Z,27.03
2018-05-27T15:40:25.364Z,27.00
2018-05-27T15:42:54.703Z,27.02
2018-05-27T15:45:24.274Z,27.02
2018-05-27T15:47:53.551Z,27.04
2018-05-27T15:50:23.169Z,27.05
2018-05-27T15:52:52.736Z,27.05
2018-05-27T15:55:22.017Z,27.01
2018-05-27T15:57:51.475Z,27.04
2018-05-27T16:00:20.765Z,27.03
2018-05-27T16:02:50.051Z,27.05
2018-05-27T16:05:19.441Z,27.04
2018-05-27T16:07:49.296Z,26.99
2018-05-27T16:10:18.895Z,26.98
2018-05-27T16:12:48.466Z,26.97
2018-05-27T16:15:18.025Z,26.92
2018-05-27T16:17:47.372Z,26.90
2018-05-27T16:20:17.046Z,26.85
2018-05-27T16:22:46.627Z,26.84
2018-05-27T16:25:15.998Z,26.86
2018-05-27T16:27:45.567Z,26.86
2018-05-27T16:30:14.867Z,26.85
2018-05-27T16:32:44.166Z,26.83
2018-05-27T16:35:13.469Z,26.78
2018-05-27T16:37:43.094Z,26.76
2018-05-27T16:40:12.433Z,26.74
2018-05-27T16:42:41.994Z,26.79
2018-05-27T16:45:11.283Z,26.83
2018-05-27T16:47:40.900Z,26.87
2018-05-27T16:50:10.410Z,26.89
2018-05-27T16:52:39.704Z,26.92
2018-05-27T16:55:09.198Z,26.95
2018-05-27T16:57:38.525Z,26.95
2018-05-27T17:00:08.127Z,26.96
2018-05-27T17:02:37.590Z,26.94
2018-05-27T17:05:06.922Z,26.90
2018-05-27T17:07:36.219Z,26.88
2018-05-27T17:10:05.330Z,26.86
2018-05-27T17:12:34.886Z,26.80
2018-05-27T17:15:03.896Z,26.76
2018-05-27T17:17:33.175Z,26.71
2018-05-27T17:20:02.454Z,26.66
2018-05-27T17:22:31.879Z,26.61
2018-05-27T17:25:01.190Z,26.56
2018-05-27T17:27:30.496Z,26.53
2018-05-27T17:29:59.823Z,26.48
2018-05-27T17:32:29.123Z,26.44
2018-05-27T17:34:58.694Z,26.37
2018-05-27T17:37:29.116Z,26.32
2018-05-27T17:39:58.688Z,26.25
2018-05-27T17:42:28.287Z,26.20
2018-05-27T17:44:57.846Z,26.14
2018-05-27T17:47:27.423Z,26.09
2018-05-27T17:49:56.714Z,26.02
2018-05-27T17:52:26.004Z,25.96
2018-05-27T17:54:55.569Z,25.90
2018-05-27T17:57:24.876Z,25.86
2018-05-27T17:59:54.349Z,25.80
2018-05-27T18:02:23.639Z,25.74
2018-05-27T18:04:52.959Z,25.66
2018-05-27T18:07:22.534Z,25.60
2018-05-27T18:09:51.949Z,25.50
2018-05-27T18:12:21.666Z,25.49
2018-05-27T18:14:50.972Z,25.43
2018-05-27T18:17:20.255Z,25.36
2018-05-27T18:19:49.843Z,25.31
2018-05-27T18:22:19.440Z,25.26
2018-05-27T18:24:48.740Z,25.21
2018-05-27T18:27:18.007Z,25.19
2018-05-27T18:29:47.504Z,25.13
2018-05-27T18:32:16.827Z,25.09
2018-05-27T18:34:46.102Z,25.03
2018-05-27T18:37:15.398Z,24.98
2018-05-27T18:39:44.695Z,24.93
2018-05-27T18:42:13.997Z,24.89
2018-05-27T18:44:43.275Z,24.85
2018-05-27T18:47:12.582Z,24.81
2018-05-27T18:49:42.448Z,24.77
2018-05-27T18:52:11.737Z,24.72
2018-05-27T18:54:41.181Z,24.69
2018-05-27T18:57:10.462Z,24.66
2018-05-27T18:59:39.819Z,24.65
2018-05-27T19:02:09.121Z,24.58
2018-05-27T19:04:38.405Z,24.54
2018-05-27T19:07:07.683Z,24.49
2018-05-27T19:09:36.979Z,24.45
2018-05-27T19:12:06.265Z,24.40
2018-05-27T19:14:35.583Z,24.38
2018-05-27T19:17:05.146Z,24.34
2018-05-27T19:19:34.438Z,24.30
2018-05-27T19:22:03.719Z,24.31
2018-05-27T19:24:33.039Z,24.31
2018-05-27T19:27:02.399Z,24.30
2018-05-27T19:29:31.677Z,24.26
2018-05-27T19:32:01.014Z,24.22
2018-05-27T19:34:30.469Z,24.18
2018-05-27T19:36:59.740Z,24.17
2018-05-27T19:39:29.041Z,24.14
2018-05-27T19:41:58.315Z,24.09
2018-05-27T19:44:27.594Z,24.06
2018-05-27T19:46:56.891Z,24.01
2018-05-27T19:49:26.194Z,23.95
2018-05-27T19:51:55.574Z,23.90
2018-05-27T19:54:24.856Z,23.92
2018-05-27T19:56:54.140Z,23.86
2018-05-27T19:59:23.423Z,23.79
2018-05-27T20:01:52.875Z,23.73
2018-05-27T20:04:22.160Z,23.67
2018-05-27T20:06:51.444Z,23.64
2018-05-27T20:09:20.735Z,23.60
2018-05-27T20:11:50.035Z,23.58
2018-05-27T20:14:19.304Z,23.54
2018-05-27T20:16:48.751Z,23.51
2018-05-27T20:19:18.016Z,23.45
2018-05-27T20:21:47.311Z,23.44
2018-05-27T20:24:16.590Z,23.39
2018-05-27T20:26:45.858Z,23.36
2018-05-27T20:29:15.142Z,23.34
2018-05-27T20:31:44.436Z,23.31
2018-05-27T20:34:13.711Z,23.30
2018-05-27T20:36:43.018Z,23.30
2018-05-27T20:39:12.318Z,23.29
2018-05-27T20:41:41.589Z,23.24
2018-05-27T20:44:10.895Z,23.18
2018-05-27T20:46:40.182Z,23.13
2018-05-27T20:49:09.476Z,23.08
2018-05-27T20:51:38.788Z,23.01
2018-05-27T20:54:08.094Z,23.00
2018-05-27T20:56:37.444Z,22.97
2018-05-27T20:59:09.936Z,22.92
2018-05-27T21:01:39.225Z,22.86
2018-05-27T21:04:08.873Z,22.83
2018-05-27T21:06:38.376Z,22.81
2018-05-27T21:09:07.687Z,22.79
2018-05-27T21:11:36.987Z,22.76
2018-05-27T21:14:06.277Z,22.73
2018-05-27T21:16:35.586Z,22.69
2018-05-27T21:19:04.648Z,22.65
2018-05-27T21:21:33.936Z,22.62
2018-05-27T21:24:03.216Z,22.60
2018-05-27T21:26:32.526Z,22.57
2018-05-27T21:29:01.821Z,22.55
2018-05-27T21:31:31.392Z,22.54
2018-05-27T21:34:00.701Z,22.51
2018-05-27T21:36:29.963Z,22.50
2018-05-27T21:38:59.242Z,22.48
2018-05-27T21:41:28.538Z,22.45
2018-05-27T21:43:57.806Z,22.43
2018-05-27T21:46:27.089Z,22.40
2018-05-27T21:48:56.395Z,22.37
2018-05-27T21:51:25.711Z,22.35
2018-05-27T21:53:55.015Z,22.33
2018-05-27T21:56:24.308Z,22.30
2018-05-27T21:58:53.570Z,22.29
2018-05-27T22:01:22.849Z,22.26
2018-05-27T22:03:52.292Z,22.23
2018-05-27T22:06:21.690Z,22.17
2018-05-27T22:08:50.958Z,22.21
2018-05-27T22:11:20.681Z,22.19
2018-05-27T22:13:49.964Z,22.18
2018-05-27T22:16:18.923Z,22.17
2018-05-27T22:18:48.209Z,22.15
2018-05-27T22:21:17.494Z,22.13
2018-05-27T22:23:46.895Z,22.11
2018-05-27T22:26:16.191Z,22.08
2018-05-27T22:28:45.459Z,22.07
2018-05-27T22:31:14.734Z,22.05
2018-05-27T22:33:44.018Z,22.03
2018-05-27T22:36:13.287Z,22.01
2018-05-27T22:38:42.575Z,21.99
2018-05-27T22:41:11.859Z,21.94
2018-05-27T22:43:41.261Z,21.91
2018-05-27T22:46:10.531Z,21.88
2018-05-27T22:48:39.859Z,21.86
2018-05-27T22:51:09.243Z,21.85
2018-05-27T22:53:38.528Z,21.83
2018-05-27T22:56:07.848Z,21.81
2018-05-27T22:58:37.116Z,21.80
2018-05-27T23:01:06.466Z,21.77
2018-05-27T23:03:36.204Z,21.78
2018-05-27T23:06:05.751Z,21.78
2018-05-27T23:08:35.332Z,21.76
2018-05-27T23:11:04.992Z,21.75
2018-05-27T23:13:34.558Z,21.75
2018-05-27T23:16:04.133Z,21.76
2018-05-27T23:18:33.685Z,21.74
2018-05-27T23:21:03.242Z,21.68
2018-05-27T23:23:32.808Z,21.69
2018-05-27T23:26:02.375Z,21.65
2018-05-27T23:28:31.947Z,21.63
2018-05-27T23:31:01.332Z,21.61
2018-05-27T23:33:30.901Z,21.59
2018-05-27T23:36:00.479Z,21.57
2018-05-27T23:38:30.248Z,21.54
2018-05-27T23:40:59.930Z,21.52
2018-05-27T23:43:29.529Z,21.47
2018-05-27T23:45:59.108Z,21.45
2018-05-27T23:48:28.689Z,21.44
2018-05-27T23:50:58.255Z,21.42
2018-05-27T23:53:27.824Z,21.41
2018-05-27T23:55:57.389Z,21.40
2018-05-27T23:58:27.027Z,21.37
